Time;durP1;ratioP1;P1;durP2;ratioP2;P2;SDS_P1;SDS_P2;PMS_P1;PMS_P2;Temp;Humidity;BMP_temperature;BMP_pressure;BME280_temperature;BME280_humidity;BME280_pressure;Samples;Min_cycle;Max_cycle;Signal;HPM_P1;HPM_P2
2023/07/08 00:01:13;;;;;;;;;;;;;;;;;;4996958;28;19936;-74
2023/07/08 00:03:59;;;;;;;;;;;;;;;;;;5001084;28;20278;-75
2023/07/08 00:06:46;;;;;;;;;;;;;;;;;;5003091;28;19969;-75
2023/07/08 00:09:32;;;;;;;;;;;;;;;;;;4996451;28;19923;-76
2023/07/08 00:12:19;;;;;;;;;;;;;;;;;;5004091;28;19947;-76
2023/07/08 00:15:05;;;;;;;;;;;;;;;;;;4999381;28;19924;-76
2023/07/08 00:17:52;;;;;;;;;;;;;;;;;;5002647;28;19918;-76
2023/07/08 00:20:38;;;;;;;;;;;;;;;;;;5004131;28;19917;-76
2023/07/08 00:23:25;;;;;;;;;;;;;;;;;;5004497;28;20387;-75
2023/07/08 00:26:11;;;;;;;;;;;;;;;;;;4993604;28;19924;-75
2023/07/08 00:28:58;;;;;;;;;;;;;;;;;;5003647;28;19930;-75
2023/07/08 00:31:44;;;;;;;;;;;;;;;;;;5004751;28;19924;-75
2023/07/08 00:34:31;;;;;;;;;;;;;;;;;;4998196;28;19925;-75
2023/07/08 00:37:17;;;;;;;;;;;;;;;;;;4996304;28;19918;-76
2023/07/08 00:40:03;;;;;;;;;;;;;;;;;;5004254;28;19917;-75
2023/07/08 00:42:50;;;;;;;;;;;;;;;;;;4996335;28;19922;-75
2023/07/08 00:45:37;;;;;;;;;;;;;;;;;;5004073;28;19918;-75
2023/07/08 00:48:23;;;;;;;;;;;;;;;;;;5001920;28;19932;-75
2023/07/08 00:51:13;;;;;;;;;;;;;;;;;;4999152;28;20010;-75
2023/07/08 00:53:59;;;;;;;;;;;;;;;;;;5002721;28;19925;-75
2023/07/08 00:56:46;;;;;;;;;;;;;;;;;;5003312;28;19925;-75
2023/07/08 00:59:32;;;;;;;;;;;;;;;;;;4996722;28;19917;-75
2023/07/08 01:02:19;;;;;;;;;;;;;;;;;;5001297;28;19914;-75
2023/07/08 01:05:05;;;;;;;;;;;;;;;;;;4994502;28;19917;-75
2023/07/08 01:07:52;;;;;;;;;;;;;;;;;;5001684;28;19921;-75
2023/07/08 01:10:38;;;;;;;;;;;;;;;;;;5001445;28;20388;-75
2023/07/08 01:13:24;;;;;;;;;;;;;;;;;;4999502;28;19930;-75
2023/07/08 01:16:11;;;;;;;;;;;;;;;;;;4993304;28;19925;-75
2023/07/08 01:18:57;;;;;;;;;;;;;;;;;;5002727;28;19921;-74
2023/07/08 01:21:44;;;;;;;;;;;;;;;;;;5003280;28;19928;-75
2023/07/08 01:24:31;;;;;;;;;;;;;;;;;;5001431;28;19913;-76
2023/07/08 01:27:17;;;;;;;;;;;;;;;;;;5003696;28;19917;-75
2023/07/08 01:30:04;;;;;;;;;;;;;;;;;;5001770;28;19932;-75
2023/07/08 01:32:50;;;;;;;;;;;;;;;;;;5001729;28;19932;-75
2023/07/08 01:35:36;;;;;;;;;;;;;;;;;;4995764;28;19928;-75
2023/07/08 01:38:23;;;;;;;;;;;;;;;;;;4994903;28;19924;-75
2023/07/08 01:41:09;;;;;;;;;;;;;;;;;;5002571;28;19921;-75
2023/07/08 01:43:56;;;;;;;;;;;;;;;;;;4997981;28;19913;-74
2023/07/08 01:46:42;;;;;;;;;;;;;;;;;;5003907;28;19925;-75
2023/07/08 01:49:29;;;;;;;;;;;;;;;;;;5001585;28;20325;-75
2023/07/08 01:52:15;;;;;;;;;;;;;;;;;;5003066;28;19932;-75
2023/07/08 01:55:02;;;;;;;;;;;;;;;;;;5003047;28;19914;-75
2023/07/08 01:57:48;;;;;;;;;;;;;;;;;;5003805;28;20018;-76
2023/07/08 02:00:35;;;;;;;;;;;;;;;;;;5002507;28;19925;-75
2023/07/08 02:03:21;;;;;;;;;;;;;;;;;;5002975;28;19922;-75
2023/07/08 02:06:08;;;;;;;;;;;;;;;;;;5001883;28;19918;-76
2023/07/08 02:08:58;;;;;;;;;;;;;;;;;;4991136;28;19933;-76
2023/07/08 02:11:44;;;;;;;;;;;;;;;;;;5002005;28;19925;-76
2023/07/08 02:14:31;;;;;;;;;;;;;;;;;;5004760;28;20412;-76
2023/07/08 02:17:17;;;;;;;;;;;;;;;;;;4996217;28;19945;-75
2023/07/08 02:20:04;;;;;;;;;;;;;;;;;;5005493;28;19913;-76
2023/07/08 02:22:50;;;;;;;;;;;;;;;;;;5013740;28;19918;-76
2023/07/08 02:25:37;;;;;;;;;;;;;;;;;;5000489;28;20017;-76
2023/07/08 02:28:23;;;;;;;;;;;;;;;;;;4998492;28;19930;-76
2023/07/08 02:31:10;;;;;;;;;;;;;;;;;;4993161;28;19921;-76
2023/07/08 02:33:56;;;;;;;;;;;;;;;;;;4996806;28;19926;-76
2023/07/08 02:36:43;;;;;;;;;;;;;;;;;;5000838;28;19917;-76
2023/07/08 02:39:30;;;;;;;;;;;;;;;;;;5002018;28;19925;-76
2023/07/08 02:42:16;;;;;;;;;;;;;;;;;;4997092;28;19917;-76
2023/07/08 02:45:03;;;;;;;;;;;;;;;;;;4996894;28;19936;-76
2023/07/08 02:47:49;;;;;;;;;;;;;;;;;;4998603;28;20329;-76
2023/07/08 02:50:36;;;;;;;;;;;;;;;;;;5009854;28;20278;-77
2023/07/08 02:53:22;;;;;;;;;;;;;;;;;;5005052;28;19925;-76
2023/07/08 02:56:09;;;;;;;;;;;;;;;;;;5003386;28;19918;-76
2023/07/08 02:58:55;;;;;;;;;;;;;;;;;;5006480;28;19917;-76
2023/07/08 03:01:42;;;;;;;;;;;;;;;;;;5004025;28;19928;-75
2023/07/08 03:04:30;;;;;;;;;;;;;;;;;;5006790;28;20593;-75
2023/07/08 03:07:16;;;;;;;;;;;;;;;;;;5007273;28;19913;-76
2023/07/08 03:10:03;;;;;;;;;;;;;;;;;;4999111;28;20340;-76
2023/07/08 03:12:49;;;;;;;;;;;;;;;;;;5006501;28;19973;-75
2023/07/08 03:15:36;;;;;;;;;;;;;;;;;;5004262;28;19990;-76
2023/07/08 03:18:24;;;;;;;;;;;;;;;;;;5003805;28;19944;-75
2023/07/08 03:21:10;;;;;;;;;;;;;;;;;;4992577;28;19917;-76
2023/07/08 03:23:57;;;;;;;;;;;;;;;;;;5004649;28;19917;-76
2023/07/08 03:26:43;;;;;;;;;;;;;;;;;;5003653;28;19918;-76
2023/07/08 03:29:30;;;;;;;;;;;;;;;;;;4984034;28;19930;-76
2023/07/08 03:32:16;;;;;;;;;;;;;;;;;;4984104;28;19990;-75
2023/07/08 03:35:02;;;;;;;;;;;;;;;;;;4992526;28;20608;-75
2023/07/08 03:37:49;;;;;;;;;;;;;;;;;;4975308;28;19918;-75
2023/07/08 03:40:35;;;;;;;;;;;;;;;;;;4984664;28;19945;-76
2023/07/08 03:43:22;;;;;;;;;;;;;;;;;;4984940;28;19926;-75
2023/07/08 03:46:08;;;;;;;;;;;;;;;;;;4983893;28;19925;-75
2023/07/08 03:48:55;;;;;;;;;;;;;;;;;;4958343;28;19917;-75
2023/07/08 03:51:41;;;;;;;;;;;;;;;;;;4985716;28;19918;-75
2023/07/08 03:54:28;;;;;;;;;;;;;;;;;;4985759;28;19932;-75
2023/07/08 03:57:14;;;;;;;;;;;;;;;;;;4984322;28;19925;-76
2023/07/08 04:00:01;;;;;;;;;;;;;;;;;;4980790;28;20293;-75
2023/07/08 04:02:47;;;;;;;;;;;;;;;;;;4983787;28;19922;-75
2023/07/08 04:05:34;;;;;;;;;;;;;;;;;;4986176;28;19924;-75
2023/07/08 04:08:20;;;;;;;;;;;;;;;;;;4980712;28;20357;-75
2023/07/08 04:11:06;;;;;;;;;;;;;;;;;;4977200;28;19918;-75
2023/07/08 04:13:53;;;;;;;;;;;;;;;;;;4984683;28;20429;-76
2023/07/08 04:16:42;;;;;;;;;;;;;;;;;;4983637;28;19922;-76
2023/07/08 04:19:28;;;;;;;;;;;;;;;;;;4979978;28;19913;-75
2023/07/08 04:22:15;;;;;;;;;;;;;;;;;;4975549;28;19918;-75
2023/07/08 04:25:03;;;;;;;;;;;;;;;;;;4981799;28;20430;-75
2023/07/08 04:27:50;;;;;;;;;;;;;;;;;;4981311;28;19940;-75
2023/07/08 04:30:40;;;;;;;;;;;;;;;;;;4986037;28;19921;-76
2023/07/08 04:33:27;;;;;;;;;;;;;;;;;;4976826;28;19926;-76
2023/07/08 04:36:13;;;;;;;;;;;;;;;;;;4987403;28;19932;-75
2023/07/08 04:39:00;;;;;;;;;;;;;;;;;;4982837;28;19918;-75
2023/07/08 04:41:46;;;;;;;;;;;;;;;;;;4981762;28;19924;-75
2023/07/08 04:44:33;;;;;;;;;;;;;;;;;;4987626;28;19925;-75
2023/07/08 04:47:20;;;;;;;;;;;;;;;;;;4988840;28;19925;-75
2023/07/08 04:50:06;;;;;;;;;;;;;;;;;;4979745;28;19925;-75
2023/07/08 04:52:53;;;;;;;;;;;;;;;;;;4969355;28;19936;-75
2023/07/08 04:55:39;;;;;;;;;;;;;;;;;;4977036;28;19918;-74
2023/07/08 04:58:26;;;;;;;;;;;;;;;;;;4977791;28;20290;-76
2023/07/08 05:01:12;;;;;;;;;;;;;;;;;;4984259;28;19922;-74
2023/07/08 05:03:59;;;;;;;;;;;;;;;;;;4983911;28;20293;-74
2023/07/08 05:06:45;;;;;;;;;;;;;;;;;;4983268;28;19918;-75
2023/07/08 05:09:32;;;;;;;;;;;;;;;;;;4991355;28;19924;-75
2023/07/08 05:12:18;;;;;;;;;;;;;;;;;;4972711;28;20293;-75
2023/07/08 05:15:05;;;;;;;;;;;;;;;;;;4983790;28;19918;-75
2023/07/08 05:17:51;;;;;;;;;;;;;;;;;;4983369;28;19928;-75
2023/07/08 05:20:38;;;;;;;;;;;;;;;;;;4975884;28;19921;-75
2023/07/08 05:23:24;;;;;;;;;;;;;;;;;;4983687;28;19917;-75
2023/07/08 05:26:11;;;;;;;;;;;;;;;;;;4981230;28;20811;-75
2023/07/08 05:28:57;;;;;;;;;;;;;;;;;;4994209;28;19933;-75
2023/07/08 05:31:44;;;;;;;;;;;;;;;;;;5002256;28;19918;-75
2023/07/08 05:34:30;;;;;;;;;;;;;;;;;;5002242;28;19940;-75
2023/07/08 05:37:21;;;;;;;;;;;;;;;;;;5002782;28;20324;-75
2023/07/08 05:40:07;;;;;;;;;;;;;;;;;;4996044;28;19924;-75
2023/07/08 05:42:54;;;;;;;;;;;;;;;;;;5003439;28;19919;-75
2023/07/08 05:45:40;;;;;;;;;;;;;;;;;;4999517;28;20025;-75
2023/07/08 05:48:27;;;;;;;;;;;;;;;;;;5004781;28;19923;-75
2023/07/08 05:51:13;;;;;;;;;;;;;;;;;;5000686;28;19985;-75
2023/07/08 05:54:00;;;;;;;;;;;;;;;;;;5000463;28;19932;-75
2023/07/08 05:56:46;;;;;;;;;;;;;;;;;;5006564;28;19913;-75
2023/07/08 05:59:33;;;;;;;;;;;;;;;;;;5003976;28;19918;-75
2023/07/08 06:02:21;;;;;;;;;;;;;;;;;;5004571;28;19917;-75
2023/07/08 06:05:08;;;;;;;;;;;;;;;;;;5000486;28;19925;-75
2023/07/08 06:07:54;;;;;;;;;;;;;;;;;;5005542;28;19917;-75
2023/07/08 06:10:40;;;;;;;;;;;;;;;;;;5006809;28;19924;-76
2023/07/08 06:13:27;;;;;;;;;;;;;;;;;;4995832;28;21067;-75
2023/07/08 06:16:13;;;;;;;;;;;;;;;;;;4996273;28;20011;-74
2023/07/08 06:19:00;;;;;;;;;;;;;;;;;;5000702;28;19925;-75
2023/07/08 06:21:46;;;;;;;;;;;;;;;;;;5005704;28;19913;-75
2023/07/08 06:24:33;;;;;;;;;;;;;;;;;;5002664;28;20378;-75
2023/07/08 06:27:19;;;;;;;;;;;;;;;;;;4999387;28;19924;-75
2023/07/08 06:30:06;;;;;;;;;;;;;;;;;;5003373;28;19925;-75
2023/07/08 06:32:52;;;;;;;;;;;;;;;;;;5004543;28;19922;-75
2023/07/08 06:35:39;;;;;;;;;;;;;;;;;;5003346;28;19925;-75
2023/07/08 06:38:25;;;;;;;;;;;;;;;;;;4997958;28;19967;-75
2023/07/08 06:41:12;;;;;;;;;;;;;;;;;;5002298;28;20393;-74
2023/07/08 06:43:58;;;;;;;;;;;;;;;;;;5006346;28;19921;-75
2023/07/08 06:46:45;;;;;;;;;;;;;;;;;;4998336;28;20663;-74
2023/07/08 06:49:31;;;;;;;;;;;;;;;;;;5013072;28;19918;-75
2023/07/08 06:52:18;;;;;;;;;;;;;;;;;;5003750;28;19917;-75
2023/07/08 06:55:04;;;;;;;;;;;;;;;;;;4999625;28;20312;-75
2023/07/08 06:57:51;;;;;;;;;;;;;;;;;;5002557;28;19918;-74
2023/07/08 07:00:38;;;;;;;;;;;;;;;;;;5006233;28;19924;-75
2023/07/08 07:03:24;;;;;;;;;;;;;;;;;;4994355;28;19940;-75
2023/07/08 07:06:11;;;;;;;;;;;;;;;;;;5005203;28;20373;-75
2023/07/08 07:08:57;;;;;;;;;;;;;;;;;;5005062;28;19914;-75
2023/07/08 07:11:44;;;;;;;;;;;;;;;;;;5002563;28;20297;-75
2023/07/08 07:14:30;;;;;;;;;;;;;;;;;;5005924;28;19925;-75
2023/07/08 07:17:17;;;;;;;;;;;;;;;;;;5001524;28;19914;-76
2023/07/08 07:20:03;;;;;;;;;;;;;;;;;;5003668;28;19918;-75
2023/07/08 07:22:51;;;;;;;;;;;;;;;;;;4994872;28;19926;-76
2023/07/08 07:25:37;;;;;;;;;;;;;;;;;;4992414;28;19929;-77
2023/07/08 07:28:24;;;;;;;;;;;;;;;;;;5005267;28;19926;-75
2023/07/08 07:31:11;;;;;;;;;;;;;;;;;;4996480;28;20289;-76
2023/07/08 07:33:57;;;;;;;;;;;;;;;;;;5004624;28;19928;-75
2023/07/08 07:36:44;;;;;;;;;;;;;;;;;;4990640;28;19921;-75
2023/07/08 07:39:30;;;;;;;;;;;;;;;;;;5006585;28;19956;-75
2023/07/08 07:42:17;;;;;;;;;;;;;;;;;;4999478;28;19921;-76
2023/07/08 07:45:03;;;;;;;;;;;;;;;;;;4999129;28;19921;-75
2023/07/08 07:47:53;;;;;;;;;;;;;;;;;;4979294;28;19917;-74
2023/07/08 07:50:40;;;;;;;;;;;;;;;;;;4996638;28;19921;-76
2023/07/08 07:53:27;;;;;;;;;;;;;;;;;;4978463;28;19922;-76
2023/07/08 07:56:13;;;;;;;;;;;;;;;;;;4997437;28;19925;-76
2023/07/08 07:59:00;;;;;;;;;;;;;;;;;;5000276;28;19917;-76
2023/07/08 08:01:46;;;;;;;;;;;;;;;;;;4996405;28;20369;-74
2023/07/08 08:04:32;;;;;;;;;;;;;;;;;;5001937;28;19946;-75
2023/07/08 08:07:19;;;;;;;;;;;;;;;;;;5000849;28;19917;-74
2023/07/08 08:10:05;;;;;;;;;;;;;;;;;;5002668;28;19924;-75
2023/07/08 08:12:52;;;;;;;;;;;;;;;;;;5001758;28;19918;-74
2023/07/08 08:15:39;;;;;;;;;;;;;;;;;;5003829;28;19918;-75
2023/07/08 08:18:26;;;;;;;;;;;;;;;;;;5005314;28;19937;-77
2023/07/08 08:21:13;;;;;;;;;;;;;;;;;;4999462;28;20388;-75
2023/07/08 08:24:00;;;;;;;;;;;;;;;;;;5002925;28;19925;-75
2023/07/08 08:26:47;;;;;;;;;;;;;;;;;;4995932;28;19918;-75
2023/07/08 08:29:33;;;;;;;;;;;;;;;;;;5001905;28;19949;-75
2023/07/08 08:32:20;;;;;;;;;;;;;;;;;;4990349;28;19924;-75
2023/07/08 08:35:08;;;;;;;;;;;;;;;;;;5002598;28;24523;-75
2023/07/08 08:37:54;;;;;;;;;;;;;;;;;;5002193;28;20293;-75
2023/07/08 08:40:41;;;;;;;;;;;;;;;;;;4999046;28;19921;-76
2023/07/08 08:43:27;;;;;;;;;;;;;;;;;;5005450;28;19917;-75
2023/07/08 08:46:14;;;;;;;;;;;;;;;;;;4993243;28;19914;-76
2023/07/08 08:49:00;;;;;;;;;;;;;;;;;;4994530;28;19918;-75
2023/07/08 08:51:47;;;;;;;;;;;;;;;;;;4999799;28;19921;-75
2023/07/08 08:54:33;;;;;;;;;;;;;;;;;;5005663;28;19929;-75
2023/07/08 08:57:20;;;;;;;;;;;;;;;;;;5000152;28;20362;-75
2023/07/08 09:00:06;;;;;;;;;;;;;;;;;;4991256;28;19914;-76
2023/07/08 09:02:53;;;;;;;;;;;;;;;;;;5000681;28;19940;-76
2023/07/08 09:05:39;;;;;;;;;;;;;;;;;;5003620;28;19918;-76
2023/07/08 09:08:26;;;;;;;;;;;;;;;;;;4994219;28;20596;-74
2023/07/08 09:11:12;;;;;;;;;;;;;;;;;;4996822;28;19924;-76
2023/07/08 09:13:59;;;;;;;;;;;;;;;;;;5003172;28;19932;-76
2023/07/08 09:16:45;;;;;;;;;;;;;;;;;;4996898;28;19933;-76
2023/07/08 09:19:32;;;;;;;;;;;;;;;;;;4991139;28;19921;-76
2023/07/08 09:22:18;;;;;;;;;;;;;;;;;;4996953;28;20317;-75
2023/07/08 09:25:05;;;;;;;;;;;;;;;;;;5001080;28;19917;-76
2023/07/08 09:27:51;;;;;;;;;;;;;;;;;;4998122;28;19924;-76
2023/07/08 09:30:38;;;;;;;;;;;;;;;;;;4995867;28;19921;-74
2023/07/08 09:33:24;;;;;;;;;;;;;;;;;;4999159;28;19945;-76
2023/07/08 09:36:11;;;;;;;;;;;;;;;;;;4998674;28;19925;-76
2023/07/08 09:38:57;;;;;;;;;;;;;;;;;;5005474;28;19920;-76
2023/07/08 09:41:44;;;;;;;;;;;;;;;;;;5005544;28;19921;-76
2023/07/08 09:44:31;;;;;;;;;;;;;;;;;;4996913;28;19917;-76
2023/07/08 09:47:17;;;;;;;;;;;;;;;;;;5001705;28;19924;-76
2023/07/08 09:50:04;;;;;;;;;;;;;;;;;;4997038;28;19952;-75
2023/07/08 09:52:50;;;;;;;;;;;;;;;;;;4990088;28;19918;-75
2023/07/08 09:55:37;;;;;;;;;;;;;;;;;;4994337;28;19924;-76
2023/07/08 09:58:23;;;;;;;;;;;;;;;;;;5005262;28;20222;-75
2023/07/08 10:01:10;;;;;;;;;;;;;;;;;;5011258;28;19928;-75
2023/07/08 10:03:56;;;;;;;;;;;;;;;;;;5002575;28;19921;-75
2023/07/08 10:06:43;;;;;;;;;;;;;;;;;;5007167;28;19917;-75
2023/07/08 10:09:29;;;;;;;;;;;;;;;;;;5009087;28;19922;-75
2023/07/08 10:12:16;;;;;;;;;;;;;;;;;;4995829;28;19953;-75
2023/07/08 10:15:02;;;;;;;;;;;;;;;;;;5004736;28;20309;-75
2023/07/08 10:17:49;;;;;;;;;;;;;;;;;;5005750;28;20289;-76
2023/07/08 10:20:35;;;;;;;;;;;;;;;;;;4998816;28;19925;-75
2023/07/08 10:23:22;;;;;;;;;;;;;;;;;;5004950;28;19917;-75
2023/07/08 10:26:08;;;;;;;;;;;;;;;;;;5004522;28;20369;-75
2023/07/08 10:28:55;;;;;;;;;;;;;;;;;;5004474;28;19929;-75
2023/07/08 10:31:41;;;;;;;;;;;;;;;;;;5004371;28;20251;-75
2023/07/08 10:34:28;;;;;;;;;;;;;;;;;;5003624;28;19932;-74
2023/07/08 10:37:14;;;;;;;;;;;;;;;;;;5004746;28;19917;-74
2023/07/08 10:40:01;;;;;;;;;;;;;;;;;;4995981;28;19925;-75
2023/07/08 10:42:47;;;;;;;;;;;;;;;;;;5004555;28;19925;-74
2023/07/08 10:45:34;;;;;;;;;;;;;;;;;;5005705;28;19917;-74
2023/07/08 10:48:20;;;;;;;;;;;;;;;;;;4998937;28;20540;-76
2023/07/08 10:51:07;;;;;;;;;;;;;;;;;;5001970;28;20396;-76
2023/07/08 10:53:53;;;;;;;;;;;;;;;;;;5001111;28;19922;-76
2023/07/08 10:56:40;;;;;;;;;;;;;;;;;;4994525;28;19928;-75
2023/07/08 10:59:26;;;;;;;;;;;;;;;;;;5002376;28;20576;-75
2023/07/08 11:02:12;;;;;;;;;;;;;;;;;;5000231;28;19929;-75
2023/07/08 11:04:59;;;;;;;;;;;;;;;;;;5002965;28;19917;-74
2023/07/08 11:07:46;;;;;;;;;;;;;;;;;;4999338;28;20386;-75
2023/07/08 11:10:35;;;;;;;;;;;;;;;;;;5006487;28;19913;-76
2023/07/08 11:13:21;;;;;;;;;;;;;;;;;;4987097;28;19929;-75
2023/07/08 11:16:08;;;;;;;;;;;;;;;;;;5003440;28;19925;-76
2023/07/08 11:18:54;;;;;;;;;;;;;;;;;;4994300;28;19971;-75
2023/07/08 11:21:41;;;;;;;;;;;;;;;;;;4993017;28;19921;-74
2023/07/08 11:24:27;;;;;;;;;;;;;;;;;;4994591;28;19924;-77
2023/07/08 11:27:18;;;;;;;;;;;;;;;;;;5005489;28;19920;-76
2023/07/08 11:30:05;;;;;;;;;;;;;;;;;;4986796;28;19930;-75
2023/07/08 11:32:51;;;;;;;;;;;;;;;;;;4998207;28;19925;-75
2023/07/08 11:35:38;;;;;;;;;;;;;;;;;;4998792;28;19921;-75
2023/07/08 11:38:24;;;;;;;;;;;;;;;;;;4998996;28;19922;-75
2023/07/08 11:41:11;;;;;;;;;;;;;;;;;;5002746;28;19940;-75
2023/07/08 11:43:57;;;;;;;;;;;;;;;;;;4992257;28;19917;-75
2023/07/08 11:46:44;;;;;;;;;;;;;;;;;;5004597;28;19918;-75
2023/07/08 11:49:30;;;;;;;;;;;;;;;;;;4998344;28;19953;-75
2023/07/08 11:52:17;;;;;;;;;;;;;;;;;;5000894;28;19918;-75
2023/07/08 11:55:03;;;;;;;;;;;;;;;;;;4998837;28;19921;-75
2023/07/08 11:57:50;;;;;;;;;;;;;;;;;;4995532;28;19921;-75
2023/07/08 12:00:36;;;;;;;;;;;;;;;;;;5005205;28;19928;-75
2023/07/08 12:03:23;;;;;;;;;;;;;;;;;;5003306;28;19921;-75
2023/07/08 12:06:09;;;;;;;;;;;;;;;;;;5002341;28;19924;-75
2023/07/08 12:08:56;;;;;;;;;;;;;;;;;;5003778;28;19924;-76
2023/07/08 12:11:42;;;;;;;;;;;;;;;;;;5003645;28;20477;-77
2023/07/08 12:14:29;;;;;;;;;;;;;;;;;;4999581;28;19925;-76
2023/07/08 12:17:16;;;;;;;;;;;;;;;;;;4999627;28;20352;-76
2023/07/08 12:20:03;;;;;;;;;;;;;;;;;;4993624;28;19921;-76
2023/07/08 12:22:50;;;;;;;;;;;;;;;;;;4999441;28;19959;-76
2023/07/08 12:25:36;;;;;;;;;;;;;;;;;;4999241;28;19921;-78
2023/07/08 12:28:23;;;;;;;;;;;;;;;;;;5002170;28;19925;-76
2023/07/08 12:31:09;;;;;;;;;;;;;;;;;;5001261;28;19921;-76
2023/07/08 12:33:56;;;;;;;;;;;;;;;;;;5003693;28;19925;-76
2023/07/08 12:36:42;;;;;;;;;;;;;;;;;;5003928;28;19924;-76
2023/07/08 12:39:29;;;;;;;;;;;;;;;;;;5005271;28;20588;-75
2023/07/08 12:42:15;;;;;;;;;;;;;;;;;;5004160;28;19919;-76
2023/07/08 12:45:02;;;;;;;;;;;;;;;;;;5005334;28;19914;-76
2023/07/08 12:47:48;;;;;;;;;;;;;;;;;;5000847;28;19928;-76
2023/07/08 12:50:35;;;;;;;;;;;;;;;;;;4996934;28;20381;-76
2023/07/08 12:53:21;;;;;;;;;;;;;;;;;;4996638;28;20366;-76
2023/07/08 12:56:08;;;;;;;;;;;;;;;;;;5001958;28;19918;-76
2023/07/08 12:58:54;;;;;;;;;;;;;;;;;;4999783;28;19922;-76
2023/07/08 13:01:41;;;;;;;;;;;;;;;;;;4993680;28;20494;-76
2023/07/08 13:04:28;;;;;;;;;;;;;;;;;;4997206;28;19923;-76
2023/07/08 13:07:14;;;;;;;;;;;;;;;;;;4997746;28;19918;-76
2023/07/08 13:10:01;;;;;;;;;;;;;;;;;;4996911;28;19944;-76
2023/07/08 13:12:47;;;;;;;;;;;;;;;;;;5001575;28;19920;-76
2023/07/08 13:15:34;;;;;;;;;;;;;;;;;;4992617;28;20647;-76
2023/07/08 13:18:20;;;;;;;;;;;;;;;;;;5002911;28;19940;-76
2023/07/08 13:21:07;;;;;;;;;;;;;;;;;;5001361;28;19925;-76
2023/07/08 13:23:53;;;;;;;;;;;;;;;;;;5004983;28;19920;-76
2023/07/08 13:26:40;;;;;;;;;;;;;;;;;;5001452;28;19928;-76
2023/07/08 13:29:26;;;;;;;;;;;;;;;;;;5002478;28;19932;-76
2023/07/08 13:32:13;;;;;;;;;;;;;;;;;;4996523;28;20608;-76
2023/07/08 13:34:59;;;;;;;;;;;;;;;;;;5001614;28;19921;-75
2023/07/08 13:37:48;;;;;;;;;;;;;;;;;;5001807;28;20053;-76
2023/07/08 13:40:34;;;;;;;;;;;;;;;;;;5002891;28;19921;-76
2023/07/08 13:43:21;;;;;;;;;;;;;;;;;;4994798;28;20381;-76
2023/07/08 13:46:07;;;;;;;;;;;;;;;;;;5001778;28;19924;-75
2023/07/08 13:48:54;;;;;;;;;;;;;;;;;;4997723;28;19920;-76
2023/07/08 13:51:40;;;;;;;;;;;;;;;;;;5001442;28;19918;-75
2023/07/08 13:54:27;;;;;;;;;;;;;;;;;;4996756;28;19922;-76
2023/07/08 13:57:13;;;;;;;;;;;;;;;;;;5003484;28;20394;-76
2023/07/08 14:00:00;;;;;;;;;;;;;;;;;;5001496;28;20393;-75
2023/07/08 14:02:46;;;;;;;;;;;;;;;;;;5002883;28;19918;-76
2023/07/08 14:05:33;;;;;;;;;;;;;;;;;;5003686;28;19920;-76
2023/07/08 14:08:19;;;;;;;;;;;;;;;;;;4998812;28;19917;-76
2023/07/08 14:11:06;;;;;;;;;;;;;;;;;;5003740;28;19917;-76
2023/07/08 14:13:53;;;;;;;;;;;;;;;;;;5006061;28;19921;-76
2023/07/08 14:16:40;;;;;;;;;;;;;;;;;;5004428;28;19932;-76
2023/07/08 14:19:26;;;;;;;;;;;;;;;;;;5007652;28;19914;-75
2023/07/08 14:22:15;;;;;;;;;;;;;;;;;;5005384;28;19917;-76
2023/07/08 14:25:02;;;;;;;;;;;;;;;;;;5001349;28;19925;-76
2023/07/08 14:27:48;;;;;;;;;;;;;;;;;;5006918;28;20388;-76
2023/07/08 14:30:35;;;;;;;;;;;;;;;;;;5007370;28;20479;-76
2023/07/08 14:33:21;;;;;;;;;;;;;;;;;;5008342;28;20440;-76
2023/07/08 14:36:08;;;;;;;;;;;;;;;;;;5002586;28;19922;-75
2023/07/08 14:38:54;;;;;;;;;;;;;;;;;;5004829;28;19918;-76
2023/07/08 14:41:41;;;;;;;;;;;;;;;;;;4993967;28;19918;-76
2023/07/08 14:44:27;;;;;;;;;;;;;;;;;;5003878;28;21163;-76
2023/07/08 14:47:14;;;;;;;;;;;;;;;;;;5006273;28;19928;-75
2023/07/08 14:50:00;;;;;;;;;;;;;;;;;;5007192;28;19919;-75
2023/07/08 14:52:47;;;;;;;;;;;;;;;;;;5000775;28;19914;-76
2023/07/08 14:55:33;;;;;;;;;;;;;;;;;;5007724;28;19922;-76
2023/07/08 14:58:19;;;;;;;;;;;;;;;;;;4995804;28;20358;-76
2023/07/08 15:01:06;;;;;;;;;;;;;;;;;;5005911;28;19918;-76
2023/07/08 15:03:52;;;;;;;;;;;;;;;;;;5005656;28;19917;-76
2023/07/08 15:06:39;;;;;;;;;;;;;;;;;;4993495;28;19917;-76
2023/07/08 15:09:26;;;;;;;;;;;;;;;;;;5006843;28;20315;-76
2023/07/08 15:12:12;;;;;;;;;;;;;;;;;;5003615;28;19925;-76
2023/07/08 15:14:59;;;;;;;;;;;;;;;;;;4995267;28;19968;-76
2023/07/08 15:17:45;;;;;;;;;;;;;;;;;;4999742;28;19948;-75
2023/07/08 15:20:32;;;;;;;;;;;;;;;;;;5005982;28;20385;-74
2023/07/08 15:23:19;;;;;;;;;;;;;;;;;;5004770;28;19924;-75
2023/07/08 15:26:05;;;;;;;;;;;;;;;;;;4996207;28;19917;-75
2023/07/08 15:28:52;;;;;;;;;;;;;;;;;;4999501;28;20534;-75
2023/07/08 15:31:38;;;;;;;;;;;;;;;;;;5004021;28;19917;-76
2023/07/08 15:34:25;;;;;;;;;;;;;;;;;;5000509;28;19929;-75
2023/07/08 15:37:11;;;;;;;;;;;;;;;;;;4998112;28;19921;-75
2023/07/08 15:39:58;;;;;;;;;;;;;;;;;;5000845;28;19921;-75
2023/07/08 15:42:44;;;;;;;;;;;;;;;;;;5003047;28;19936;-75
2023/07/08 15:45:30;;;;;;;;;;;;;;;;;;5000766;28;20289;-76
2023/07/08 15:48:17;;;;;;;;;;;;;;;;;;4995723;28;19914;-75
2023/07/08 15:51:03;;;;;;;;;;;;;;;;;;4997664;28;19917;-75
2023/07/08 15:53:50;;;;;;;;;;;;;;;;;;5014317;28;19928;-75
2023/07/08 15:56:36;;;;;;;;;;;;;;;;;;5003150;28;19965;-76
2023/07/08 15:59:23;;;;;;;;;;;;;;;;;;4990892;28;20005;-76
2023/07/08 16:02:09;;;;;;;;;;;;;;;;;;5002120;28;20593;-75
2023/07/08 16:04:56;;;;;;;;;;;;;;;;;;5004719;28;19917;-75
2023/07/08 16:07:42;;;;;;;;;;;;;;;;;;5001739;28;19920;-75
2023/07/08 16:10:29;;;;;;;;;;;;;;;;;;5003495;28;19918;-75
2023/07/08 16:13:15;;;;;;;;;;;;;;;;;;4998124;28;19949;-75
2023/07/08 16:16:02;;;;;;;;;;;;;;;;;;5001471;28;19928;-75
2023/07/08 16:18:48;;;;;;;;;;;;;;;;;;4998927;28;19914;-75
2023/07/08 16:21:35;;;;;;;;;;;;;;;;;;5000232;28;20483;-75
2023/07/08 16:24:21;;;;;;;;;;;;;;;;;;5000760;28;19917;-75
2023/07/08 16:27:08;;;;;;;;;;;;;;;;;;4996391;28;19921;-75
2023/07/08 16:29:54;;;;;;;;;;;;;;;;;;4980945;28;20329;-74
2023/07/08 16:32:41;;;;;;;;;;;;;;;;;;4977352;28;19991;-75
2023/07/08 16:35:27;;;;;;;;;;;;;;;;;;4986211;28;19929;-75
2023/07/08 16:38:14;;;;;;;;;;;;;;;;;;4981716;28;19922;-74
2023/07/08 16:41:01;;;;;;;;;;;;;;;;;;4984910;28;19925;-75
2023/07/08 16:43:47;;;;;;;;;;;;;;;;;;4981777;28;20313;-76
2023/07/08 16:46:34;;;;;;;;;;;;;;;;;;4982403;28;19914;-76
2023/07/08 16:49:20;;;;;;;;;;;;;;;;;;4984262;28;19972;-76
2023/07/08 16:52:07;;;;;;;;;;;;;;;;;;4983377;28;19925;-76
2023/07/08 16:54:53;;;;;;;;;;;;;;;;;;4982920;28;19921;-75
2023/07/08 16:57:40;;;;;;;;;;;;;;;;;;4981787;28;19925;-76
2023/07/08 17:00:27;;;;;;;;;;;;;;;;;;4983012;28;19921;-75
2023/07/08 17:03:13;;;;;;;;;;;;;;;;;;4982450;28;19925;-76
2023/07/08 17:05:59;;;;;;;;;;;;;;;;;;4979338;28;19924;-76
2023/07/08 17:08:46;;;;;;;;;;;;;;;;;;4986153;28;19917;-76
2023/07/08 17:11:32;;;;;;;;;;;;;;;;;;4983493;28;19914;-76
2023/07/08 17:14:19;;;;;;;;;;;;;;;;;;4983658;28;19926;-76
2023/07/08 17:17:06;;;;;;;;;;;;;;;;;;4982330;28;19918;-76
2023/07/08 17:19:52;;;;;;;;;;;;;;;;;;4979413;28;19918;-76
2023/07/08 17:22:38;;;;;;;;;;;;;;;;;;4983746;28;19914;-77
2023/07/08 17:25:25;;;;;;;;;;;;;;;;;;4969399;28;19924;-75
2023/07/08 17:28:11;;;;;;;;;;;;;;;;;;4987126;28;19929;-76
2023/07/08 17:30:58;;;;;;;;;;;;;;;;;;5001026;28;19927;-76
2023/07/08 17:33:44;;;;;;;;;;;;;;;;;;4994573;28;19921;-76
2023/07/08 17:36:31;;;;;;;;;;;;;;;;;;5004038;28;19932;-76
2023/07/08 17:39:17;;;;;;;;;;;;;;;;;;5000265;28;19921;-76
2023/07/08 17:42:04;;;;;;;;;;;;;;;;;;5001909;28;19961;-76
2023/07/08 17:44:50;;;;;;;;;;;;;;;;;;5005491;28;19941;-76
2023/07/08 17:47:37;;;;;;;;;;;;;;;;;;5004970;28;19925;-76
2023/07/08 17:50:23;;;;;;;;;;;;;;;;;;5006143;28;19933;-76
2023/07/08 17:53:10;;;;;;;;;;;;;;;;;;5002359;28;19925;-76
2023/07/08 17:55:57;;;;;;;;;;;;;;;;;;5006744;28;19937;-75
2023/07/08 17:58:44;;;;;;;;;;;;;;;;;;5016439;28;19924;-77
2023/07/08 18:01:30;;;;;;;;;;;;;;;;;;4982299;28;19925;-76
2023/07/08 18:04:17;;;;;;;;;;;;;;;;;;5006542;28;19914;-76
2023/07/08 18:07:03;;;;;;;;;;;;;;;;;;5005800;28;19924;-76
2023/07/08 18:09:49;;;;;;;;;;;;;;;;;;5006539;28;20471;-76
2023/07/08 18:12:37;;;;;;;;;;;;;;;;;;5007339;28;19924;-76
2023/07/08 18:15:24;;;;;;;;;;;;;;;;;;5006137;28;19922;-76
2023/07/08 18:18:10;;;;;;;;;;;;;;;;;;5005858;28;20285;-75
2023/07/08 18:20:57;;;;;;;;;;;;;;;;;;5002793;28;19917;-75
2023/07/08 18:23:43;;;;;;;;;;;;;;;;;;4996770;28;19920;-75
2023/07/08 18:26:33;;;;;;;;;;;;;;;;;;4994299;28;19924;-75
2023/07/08 18:29:20;;;;;;;;;;;;;;;;;;5001421;28;20394;-75
2023/07/08 18:32:07;;;;;;;;;;;;;;;;;;5007422;28;19913;-74
2023/07/08 18:34:53;;;;;;;;;;;;;;;;;;4992473;28;19925;-75
2023/07/08 18:37:40;;;;;;;;;;;;;;;;;;5001748;28;19917;-75
2023/07/08 18:40:26;;;;;;;;;;;;;;;;;;5000220;28;19921;-75
2023/07/08 18:43:12;;;;;;;;;;;;;;;;;;5005826;28;19928;-75
2023/07/08 18:45:59;;;;;;;;;;;;;;;;;;5006257;28;19924;-75
2023/07/08 18:48:45;;;;;;;;;;;;;;;;;;4993504;28;20340;-76
2023/07/08 18:51:32;;;;;;;;;;;;;;;;;;5001498;28;20385;-75
2023/07/08 18:54:18;;;;;;;;;;;;;;;;;;5001828;28;19929;-75
2023/07/08 18:57:05;;;;;;;;;;;;;;;;;;5004509;28;20544;-75